createdAt,value
2024-01-30T00:00:20.704Z,25.27
2024-01-30T00:02:51.740Z,25.21
2024-01-30T00:05:49.494Z,25.31
2024-01-30T00:08:20.324Z,25.21
2024-01-30T00:10:50.752Z,25.25
2024-01-30T00:13:22.582Z,25.18
2024-01-30T00:15:55.101Z,25.18
2024-01-30T00:18:26.125Z,25.20
2024-01-30T00:20:57.288Z,25.22
2024-01-30T00:23:29.078Z,25.25
2024-01-30T00:25:59.783Z,25.21
2024-01-30T00:28:31.001Z,25.22
2024-01-30T00:31:03.607Z,25.21
2024-01-30T00:33:40.301Z,25.18
2024-01-30T00:36:13.976Z,25.21
2024-01-30T00:38:48.272Z,25.27
2024-01-30T00:41:22.506Z,25.31
2024-01-30T00:43:53.516Z,25.35
2024-01-30T00:46:24.638Z,25.38
2024-01-30T00:48:55.920Z,25.39
2024-01-30T00:51:27.837Z,25.39
2024-01-30T00:54:01.620Z,25.37
2024-01-30T00:56:43.992Z,25.37
2024-01-30T00:59:28.700Z,25.32
2024-01-30T01:01:59.356Z,25.31
2024-01-30T01:04:30.801Z,25.30
2024-01-30T01:07:02.077Z,25.24
2024-01-30T01:09:32.818Z,25.25
2024-01-30T01:12:03.622Z,25.28
2024-01-30T01:14:48.602Z,25.22
2024-01-30T01:17:21.133Z,25.20
2024-01-30T01:19:52.008Z,25.17
2024-01-30T01:22:26.647Z,25.12
2024-01-30T01:25:00.846Z,25.14
2024-01-30T01:27:31.696Z,25.10
2024-01-30T01:30:03.817Z,25.06
2024-01-30T01:32:41.913Z,25.07
2024-01-30T01:35:14.181Z,25.08
2024-01-30T01:37:44.832Z,25.01
2024-01-30T01:40:46.699Z,25.03
2024-01-30T01:43:18.568Z,24.92
2024-01-30T01:45:50.631Z,24.84
2024-01-30T01:48:23.089Z,24.84
2024-01-30T01:50:59.829Z,24.77
2024-01-30T01:56:16.761Z,24.74
2024-01-30T01:58:53.417Z,24.70
2024-01-30T02:01:30.026Z,24.64
2024-01-30T02:04:12.591Z,24.59
2024-01-30T02:06:47.200Z,24.52
2024-01-30T02:09:20.153Z,24.44
2024-01-30T02:12:02.984Z,24.52
2024-01-30T02:14:37.291Z,24.44
2024-01-30T02:17:12.947Z,24.37
2024-01-30T02:19:44.742Z,24.36
2024-01-30T02:22:18.175Z,24.33
2024-01-30T02:24:50.729Z,24.33
2024-01-30T02:27:22.053Z,24.32
2024-01-30T02:29:58.732Z,24.30
2024-01-30T02:32:30.494Z,24.30
2024-01-30T02:35:01.449Z,24.36
2024-01-30T02:37:32.121Z,24.39
2024-01-30T02:40:07.126Z,24.44
2024-01-30T02:46:54.258Z,24.32
2024-01-30T02:49:30.953Z,24.25
2024-01-30T02:52:04.483Z,24.23
2024-01-30T02:54:44.506Z,24.18
2024-01-30T02:57:19.642Z,24.13
2024-01-30T02:59:52.004Z,24.23
2024-01-30T03:02:27.051Z,24.15
2024-01-30T03:04:59.542Z,24.12
2024-01-30T03:07:31.981Z,24.12
2024-01-30T03:10:11.970Z,24.10
2024-01-30T03:12:43.519Z,24.09
2024-01-30T03:15:14.188Z,24.01
2024-01-30T03:17:45.526Z,23.96
2024-01-30T03:20:20.001Z,23.94
2024-01-30T03:22:51.414Z,23.94
2024-01-30T03:25:25.598Z,23.88
2024-01-30T03:28:00.598Z,23.85
2024-01-30T03:30:31.452Z,23.81
2024-01-30T03:33:03.340Z,23.78
2024-01-30T03:35:35.090Z,23.71
2024-01-30T03:38:08.238Z,23.68
2024-01-30T03:40:39.378Z,23.69
2024-01-30T03:43:10.772Z,23.76
2024-01-30T03:45:41.218Z,23.71
2024-01-30T03:52:39.143Z,23.61
2024-01-30T03:55:11.433Z,23.57
2024-01-30T03:58:08.588Z,23.54
2024-01-30T04:00:40.759Z,23.53
2024-01-30T04:03:12.860Z,23.51
2024-01-30T04:05:46.415Z,23.54
2024-01-30T04:08:18.583Z,23.47
2024-01-30T04:10:50.963Z,23.45
2024-01-30T04:13:33.415Z,23.48
2024-01-30T04:16:06.441Z,23.48
2024-01-30T04:18:37.940Z,23.43
2024-01-30T04:21:09.576Z,23.37
2024-01-30T04:23:44.721Z,23.40
2024-01-30T04:26:17.156Z,23.34
2024-01-30T04:28:51.114Z,23.37
2024-01-30T04:31:22.368Z,23.38
2024-01-30T04:33:56.609Z,23.30
2024-01-30T04:36:29.481Z,23.33
2024-01-30T04:39:01.834Z,23.23
2024-01-30T04:41:35.015Z,23.24
2024-01-30T04:44:06.212Z,23.17
2024-01-30T04:46:39.997Z,23.18
2024-01-30T04:49:12.490Z,23.15
2024-01-30T04:51:43.295Z,23.17
2024-01-30T04:54:15.719Z,23.13
2024-01-30T04:56:47.121Z,23.13
2024-01-30T04:59:18.814Z,23.06
2024-01-30T05:01:50.330Z,23.06
2024-01-30T05:04:28.962Z,23.04
2024-01-30T05:07:00.753Z,22.97
2024-01-30T05:09:33.230Z,22.99
2024-01-30T05:12:05.282Z,22.94
2024-01-30T05:14:46.816Z,22.94
2024-01-30T05:17:18.061Z,22.92
2024-01-30T05:19:49.456Z,22.92
2024-01-30T05:22:22.060Z,22.90
2024-01-30T05:24:53.036Z,22.90
2024-01-30T05:27:24.536Z,22.89
2024-01-30T05:29:56.158Z,22.90
2024-01-30T05:32:27.440Z,22.84
2024-01-30T05:34:58.887Z,22.82
2024-01-30T05:37:30.643Z,22.84
2024-01-30T05:40:02.688Z,22.82
2024-01-30T05:42:34.083Z,22.79
2024-01-30T05:45:05.661Z,22.74
2024-01-30T05:47:36.392Z,22.76
2024-01-30T05:50:07.689Z,22.72
2024-01-30T05:52:38.622Z,22.72
2024-01-30T05:55:14.285Z,22.67
2024-01-30T05:57:45.013Z,22.84
2024-01-30T06:00:22.332Z,22.77
2024-01-30T06:02:57.103Z,22.74
2024-01-30T06:05:28.096Z,22.74
2024-01-30T06:07:58.655Z,22.67
2024-01-30T06:10:32.980Z,22.63
2024-01-30T06:13:05.924Z,22.60
2024-01-30T06:15:38.189Z,22.56
2024-01-30T06:18:10.149Z,22.52
2024-01-30T06:20:41.777Z,22.55
2024-01-30T06:23:14.256Z,22.53
2024-01-30T06:25:46.017Z,22.49
2024-01-30T06:28:17.625Z,22.48
2024-01-30T06:30:49.391Z,22.51
2024-01-30T06:33:24.629Z,22.53
2024-01-30T06:35:56.776Z,22.48
2024-01-30T06:39:35.322Z,22.48
2024-01-30T06:42:06.324Z,22.48
2024-01-30T06:44:37.922Z,22.46
2024-01-30T06:47:10.574Z,22.39
2024-01-30T06:49:41.993Z,22.43
2024-01-30T06:52:13.438Z,22.43
2024-01-30T07:00:10.672Z,22.41
2024-01-30T07:02:41.436Z,22.32
2024-01-30T07:05:12.918Z,22.36
2024-01-30T07:07:44.417Z,22.26
2024-01-30T07:10:17.722Z,22.33
2024-01-30T07:12:49.228Z,22.32
2024-01-30T07:15:25.050Z,22.29
2024-01-30T07:17:55.580Z,22.28
2024-01-30T07:20:27.310Z,22.28
2024-01-30T07:23:01.389Z,22.25
2024-01-30T07:25:34.734Z,22.26
2024-01-30T07:28:34.237Z,22.26
2024-01-30T07:31:06.528Z,22.15
2024-01-30T07:33:37.776Z,22.15
2024-01-30T07:36:10.749Z,22.13
2024-01-30T07:38:42.110Z,22.11
2024-01-30T07:41:13.826Z,22.05
2024-01-30T07:43:47.980Z,22.01
2024-01-30T07:46:18.722Z,22.02
2024-01-30T07:48:50.856Z,21.94
2024-01-30T07:51:23.755Z,21.97
2024-01-30T07:53:57.376Z,21.92
2024-01-30T07:56:28.653Z,21.90
2024-01-30T07:58:59.909Z,21.90
2024-01-30T08:01:31.663Z,21.85
2024-01-30T08:04:03.491Z,21.91
2024-01-30T08:06:35.089Z,21.88
2024-01-30T08:09:06.525Z,21.88
2024-01-30T08:11:37.139Z,21.85
2024-01-30T08:14:09.770Z,21.85
2024-01-30T08:16:42.696Z,21.90
2024-01-30T08:19:14.164Z,21.85
2024-01-30T08:21:45.144Z,21.85
2024-01-30T08:24:15.604Z,21.85
2024-01-30T08:26:47.311Z,21.85
2024-01-30T08:29:19.366Z,21.85
2024-01-30T08:32:03.594Z,21.90
2024-01-30T08:34:35.147Z,21.85
2024-01-30T08:37:12.224Z,21.88
2024-01-30T08:39:46.870Z,21.87
2024-01-30T08:42:17.518Z,21.84
2024-01-30T08:44:48.619Z,21.82
2024-01-30T08:47:38.429Z,21.84
2024-01-30T08:50:10.844Z,21.81
2024-01-30T08:53:22.491Z,21.85
2024-01-30T08:55:53.026Z,21.87
2024-01-30T08:58:24.882Z,21.88
2024-01-30T09:00:57.137Z,21.90
2024-01-30T09:03:29.499Z,21.95
2024-01-30T09:06:00.669Z,21.98
2024-01-30T09:08:32.500Z,22.02
2024-01-30T09:11:03.525Z,22.04
2024-01-30T09:13:35.325Z,22.05
2024-01-30T09:16:06.896Z,22.09
2024-01-30T09:18:38.885Z,22.13
2024-01-30T09:21:10.806Z,22.22
2024-01-30T09:23:41.614Z,22.21
2024-01-30T09:26:12.292Z,22.25
2024-01-30T09:28:46.502Z,22.28
2024-01-30T09:31:19.253Z,22.35
2024-01-30T09:33:53.160Z,22.36
2024-01-30T09:36:25.368Z,22.41
2024-01-30T09:38:57.753Z,22.43
2024-01-30T09:41:32.229Z,22.48
2024-01-30T09:44:03.039Z,22.56
2024-01-30T09:46:37.298Z,22.60
2024-01-30T09:49:12.016Z,22.72
2024-01-30T09:51:44.189Z,22.76
2024-01-30T09:54:18.067Z,22.83
2024-01-30T09:56:50.378Z,22.92
2024-01-30T09:59:28.503Z,23.04
2024-01-30T10:02:00.329Z,23.07
2024-01-30T10:04:32.326Z,23.14
2024-01-30T10:07:05.654Z,23.18
2024-01-30T10:09:37.145Z,23.28
2024-01-30T10:12:34.512Z,23.43
2024-01-30T10:15:05.278Z,23.48
2024-01-30T10:17:37.223Z,23.59
2024-01-30T10:20:09.962Z,26.44
2024-01-30T10:22:41.849Z,28.94
2024-01-30T10:25:14.415Z,29.96
2024-01-30T10:27:44.987Z,30.39
2024-01-30T10:30:16.339Z,30.59
2024-01-30T10:32:55.194Z,31.08
2024-01-30T10:35:26.082Z,30.98
2024-01-30T10:38:03.261Z,30.59
2024-01-30T10:40:37.026Z,30.25
2024-01-30T10:43:10.102Z,30.03
2024-01-30T10:45:44.144Z,30.13
2024-01-30T10:48:16.993Z,29.97
2024-01-30T10:50:54.058Z,29.62
2024-01-30T10:53:32.560Z,29.59
2024-01-30T10:56:08.325Z,29.72
2024-01-30T10:58:38.900Z,29.70
2024-01-30T11:01:10.382Z,29.86
2024-01-30T11:03:41.576Z,29.74
2024-01-30T11:06:16.373Z,29.60
2024-01-30T11:08:49.409Z,29.88
2024-01-30T11:11:21.325Z,29.97
2024-01-30T11:13:53.443Z,29.45
2024-01-30T11:16:24.100Z,28.82
2024-01-30T11:18:56.003Z,28.81
2024-01-30T11:21:28.681Z,29.69
2024-01-30T11:23:59.691Z,30.27
2024-01-30T11:26:34.416Z,29.76
2024-01-30T11:29:11.958Z,29.96
2024-01-30T11:31:43.220Z,30.45
2024-01-30T11:34:17.487Z,29.01
2024-01-30T11:36:53.597Z,28.21
2024-01-30T11:39:25.394Z,27.80
2024-01-30T11:41:57.035Z,27.88
2024-01-30T11:44:29.826Z,28.09
2024-01-30T11:47:01.232Z,28.14
2024-01-30T11:50:00.968Z,28.18
2024-01-30T11:52:32.238Z,28.07
2024-01-30T11:55:03.117Z,27.88
2024-01-30T11:57:33.912Z,28.33
2024-01-30T12:00:06.998Z,28.28
2024-01-30T12:02:40.672Z,28.14
2024-01-30T12:05:14.968Z,27.93
2024-01-30T12:07:49.825Z,27.96
2024-01-30T12:10:21.753Z,28.37
2024-01-30T12:12:57.386Z,28.72
2024-01-30T12:15:29.280Z,29.05
2024-01-30T12:18:10.389Z,29.96
2024-01-30T12:20:41.475Z,29.46
2024-01-30T12:23:11.388Z,28.99
2024-01-30T12:25:41.782Z,29.37
2024-01-30T12:28:12.629Z,29.76
2024-01-30T12:30:43.551Z,29.67
2024-01-30T12:33:21.770Z,29.98
2024-01-30T12:36:02.582Z,30.34
2024-01-30T12:38:35.635Z,29.66
2024-01-30T12:41:08.164Z,29.55
2024-01-30T12:43:39.436Z,29.83
2024-01-30T12:46:10.783Z,30.08
2024-01-30T12:48:46.636Z,30.37
2024-01-30T12:51:17.271Z,30.55
2024-01-30T12:53:48.968Z,30.13
2024-01-30T12:56:19.552Z,29.37
2024-01-30T12:58:54.047Z,29.53
2024-01-30T13:01:26.642Z,29.69
2024-01-30T13:04:01.243Z,29.84
2024-01-30T13:06:32.963Z,29.81
2024-01-30T13:09:03.372Z,29.98
2024-01-30T13:11:33.728Z,29.25
2024-01-30T13:14:06.306Z,29.57
2024-01-30T13:16:37.362Z,29.45
2024-01-30T13:19:11.635Z,28.94
2024-01-30T13:21:42.372Z,28.95
2024-01-30T13:24:12.817Z,28.64
2024-01-30T13:26:43.745Z,28.90
2024-01-30T13:29:14.465Z,28.55
2024-01-30T13:31:47.437Z,28.21
2024-01-30T13:34:18.070Z,28.40
2024-01-30T13:36:48.299Z,28.58
2024-01-30T13:39:21.766Z,28.06
2024-01-30T13:41:55.250Z,28.21
2024-01-30T13:44:25.946Z,27.72
2024-01-30T13:46:57.886Z,27.45
2024-01-30T13:49:31.523Z,27.43
2024-01-30T13:52:04.152Z,28.37
2024-01-30T13:54:36.035Z,29.18
2024-01-30T13:57:09.262Z,28.81
2024-01-30T13:59:41.258Z,30.06
2024-01-30T14:02:13.102Z,30.16
2024-01-30T14:04:44.010Z,30.39
2024-01-30T14:07:15.378Z,30.61
2024-01-30T14:09:53.493Z,30.28
2024-01-30T14:12:25.637Z,30.28
2024-01-30T14:14:57.487Z,30.29
2024-01-30T14:17:27.819Z,30.44
2024-01-30T14:19:58.692Z,30.89
2024-01-30T14:22:33.552Z,30.88
2024-01-30T14:25:07.654Z,31.13
2024-01-30T14:27:39.835Z,31.63
2024-01-30T14:30:14.017Z,31.60
2024-01-30T14:32:48.142Z,31.64
2024-01-30T14:35:19.235Z,31.64
2024-01-30T14:37:50.463Z,31.43
2024-01-30T14:40:21.592Z,30.99
2024-01-30T14:42:52.394Z,30.95
2024-01-30T14:45:24.543Z,31.42
2024-01-30T14:47:56.007Z,30.93
2024-01-30T14:50:26.772Z,31.44
2024-01-30T14:52:57.060Z,31.06
2024-01-30T14:55:27.209Z,30.74
2024-01-30T14:57:57.789Z,30.76
2024-01-30T15:00:30.591Z,30.71
2024-01-30T15:03:01.838Z,30.68
2024-01-30T15:05:32.358Z,31.08
2024-01-30T15:08:02.928Z,31.15
2024-01-30T15:10:37.238Z,30.92
2024-01-30T15:13:09.814Z,30.75
2024-01-30T15:15:43.085Z,30.72
2024-01-30T15:18:17.941Z,30.86
2024-01-30T15:20:48.844Z,30.71
2024-01-30T15:23:20.202Z,30.61
2024-01-30T15:25:51.374Z,30.44
2024-01-30T15:28:24.031Z,30.42
2024-01-30T15:30:54.846Z,30.38
2024-01-30T15:33:29.570Z,30.52
2024-01-30T15:36:01.363Z,30.45
2024-01-30T15:38:33.582Z,30.48
2024-01-30T15:41:05.425Z,30.51
2024-01-30T15:43:36.908Z,30.32
2024-01-30T15:46:10.638Z,29.73
2024-01-30T15:48:43.164Z,29.14
2024-01-30T15:51:13.752Z,28.98
2024-01-30T15:53:44.076Z,28.72
2024-01-30T15:56:14.394Z,28.52
2024-01-30T15:58:44.590Z,28.58
2024-01-30T16:01:15.586Z,28.41
2024-01-30T16:03:49.928Z,28.51
2024-01-30T16:06:20.398Z,27.80
2024-01-30T16:08:52.042Z,28.23
2024-01-30T16:11:23.733Z,28.30
2024-01-30T16:13:54.949Z,28.31
2024-01-30T16:16:26.235Z,28.44
2024-01-30T16:18:59.298Z,28.33
2024-01-30T16:21:31.554Z,28.67
2024-01-30T16:24:05.250Z,28.48
2024-01-30T16:26:35.872Z,28.60
2024-01-30T16:29:07.732Z,28.30
2024-01-30T16:31:38.758Z,28.40
2024-01-30T16:34:10.999Z,28.21
2024-01-30T16:36:42.996Z,28.24
2024-01-30T16:39:14.623Z,28.14
2024-01-30T16:41:48.182Z,28.13
2024-01-30T16:44:19.296Z,28.11
2024-01-30T16:46:52.481Z,28.24
2024-01-30T16:49:25.865Z,28.33
2024-01-30T16:51:58.021Z,28.39
2024-01-30T16:54:29.436Z,28.34
2024-01-30T16:57:00.440Z,28.45
2024-01-30T16:59:31.654Z,28.43
2024-01-30T17:02:07.628Z,28.51
2024-01-30T17:04:38.523Z,28.41
2024-01-30T17:07:09.226Z,28.58
2024-01-30T17:09:41.105Z,28.78
2024-01-30T17:12:15.833Z,29.18
2024-01-30T17:14:46.553Z,29.22
2024-01-30T17:17:17.801Z,29.72
2024-01-30T17:19:49.016Z,30.45
2024-01-30T17:22:24.896Z,30.55
2024-01-30T17:25:00.332Z,31.16
2024-01-30T17:27:30.597Z,31.49
2024-01-30T17:30:06.067Z,31.42
2024-01-30T17:32:37.598Z,31.22
2024-01-30T17:35:08.799Z,31.19
2024-01-30T17:37:42.364Z,31.32
2024-01-30T17:40:14.581Z,31.61
2024-01-30T17:42:45.905Z,31.51
2024-01-30T17:45:16.415Z,31.15
2024-01-30T17:47:47.236Z,31.19
2024-01-30T17:50:22.177Z,31.46
2024-01-30T17:52:53.701Z,31.64
2024-01-30T17:55:26.063Z,31.44
2024-01-30T17:57:56.672Z,30.75
2024-01-30T18:00:31.335Z,30.68
2024-01-30T18:03:03.968Z,30.03
2024-01-30T18:05:35.338Z,29.25
2024-01-30T18:08:10.557Z,28.90
2024-01-30T18:10:42.642Z,28.84
2024-01-30T18:13:20.153Z,28.64
2024-01-30T18:15:54.027Z,28.62
2024-01-30T18:18:32.002Z,28.52
2024-01-30T18:21:03.216Z,28.47
2024-01-30T18:23:37.830Z,28.43
2024-01-30T18:26:08.700Z,28.40
2024-01-30T18:28:39.287Z,28.44
2024-01-30T18:31:10.954Z,28.31
2024-01-30T18:33:42.785Z,28.33
2024-01-30T18:36:15.370Z,28.20
2024-01-30T18:38:48.939Z,28.11
2024-01-30T18:41:20.046Z,28.18
2024-01-30T18:43:51.086Z,28.09
2024-01-30T18:49:22.614Z,28.06
2024-01-30T18:51:55.333Z,27.97
2024-01-30T18:54:29.640Z,27.96
2024-01-30T18:57:00.684Z,27.93
2024-01-30T18:59:30.885Z,27.80
2024-01-30T19:02:01.395Z,27.83
2024-01-30T19:04:31.610Z,27.88
2024-01-30T19:07:04.611Z,27.78
2024-01-30T19:09:35.259Z,27.83
2024-01-30T19:12:05.899Z,27.69
2024-01-30T19:14:39.239Z,27.59
2024-01-30T19:17:11.482Z,27.60
2024-01-30T19:19:43.462Z,27.53
2024-01-30T19:22:14.650Z,27.55
2024-01-30T19:24:45.624Z,27.49
2024-01-30T19:27:15.759Z,27.46
2024-01-30T19:29:46.192Z,27.43
2024-01-30T19:32:17.572Z,27.50
2024-01-30T19:34:50.077Z,27.42
2024-01-30T19:37:27.630Z,27.39
2024-01-30T19:39:58.557Z,27.46
2024-01-30T19:42:29.499Z,27.37
2024-01-30T19:44:59.821Z,27.37
2024-01-30T19:47:30.990Z,27.42
2024-01-30T19:50:01.855Z,27.25
2024-01-30T19:52:35.456Z,27.22
2024-01-30T19:55:06.780Z,27.32
2024-01-30T19:57:37.025Z,27.27
2024-01-30T20:00:07.971Z,27.15
2024-01-30T20:02:38.744Z,27.08
2024-01-30T20:05:10.206Z,27.07
2024-01-30T20:07:40.730Z,26.97
2024-01-30T20:10:13.515Z,26.98
2024-01-30T20:12:44.986Z,26.94
2024-01-30T20:15:17.276Z,26.94
2024-01-30T20:17:47.934Z,26.95
2024-01-30T20:20:19.235Z,26.94
2024-01-30T20:22:51.225Z,26.83
2024-01-30T20:25:22.158Z,26.87
2024-01-30T20:27:52.927Z,26.88
2024-01-30T20:30:24.972Z,26.92
2024-01-30T20:32:56.515Z,26.84
2024-01-30T20:35:28.929Z,26.76
2024-01-30T20:38:00.995Z,26.67
2024-01-30T20:40:32.867Z,26.64
2024-01-30T20:43:03.273Z,26.64
2024-01-30T20:45:33.543Z,26.60
2024-01-30T20:48:04.505Z,26.51
2024-01-30T20:50:36.631Z,26.56
2024-01-30T20:53:11.773Z,26.44
2024-01-30T20:55:42.735Z,26.43
2024-01-30T20:58:13.148Z,26.34
2024-01-30T21:00:44.205Z,26.32
2024-01-30T21:03:14.844Z,26.30
2024-01-30T21:05:48.263Z,26.16
2024-01-30T21:08:22.256Z,26.16
2024-01-30T21:10:53.574Z,26.07
2024-01-30T21:13:25.435Z,26.07
2024-01-30T21:15:58.019Z,25.96
2024-01-30T21:18:29.370Z,25.85
2024-01-30T21:21:01.180Z,25.83
2024-01-30T21:23:32.166Z,25.78
2024-01-30T21:26:07.183Z,25.73
2024-01-30T21:28:38.597Z,25.69
2024-01-30T21:31:12.021Z,25.55
2024-01-30T21:33:43.152Z,25.49
2024-01-30T21:36:14.754Z,25.45
2024-01-30T21:38:47.250Z,25.39
2024-01-30T21:41:21.517Z,25.34
2024-01-30T21:43:55.284Z,25.25
2024-01-30T21:46:30.278Z,25.24
2024-01-30T21:49:01.772Z,25.18
2024-01-30T21:51:33.240Z,25.11
2024-01-30T21:54:03.758Z,25.11
2024-01-30T21:56:41.230Z,25.08
2024-01-30T21:59:15.306Z,25.03
2024-01-30T22:01:49.375Z,24.94
2024-01-30T22:04:20.173Z,24.91
2024-01-30T22:06:50.702Z,24.86
2024-01-30T22:09:28.222Z,24.83
2024-01-30T22:12:03.240Z,24.80
2024-01-30T22:14:35.981Z,24.70
2024-01-30T22:17:07.790Z,24.71
2024-01-30T22:19:38.166Z,24.64
2024-01-30T22:22:08.870Z,24.66
2024-01-30T22:24:41.886Z,24.55
2024-01-30T22:27:13.264Z,24.57
2024-01-30T22:29:46.069Z,24.56
2024-01-30T22:32:17.502Z,24.46
2024-01-30T22:34:48.686Z,24.46
2024-01-30T22:37:18.808Z,24.43
2024-01-30T22:39:49.934Z,24.37
2024-01-30T22:42:21.128Z,24.41
2024-01-30T22:44:52.732Z,24.36
2024-01-30T22:47:25.787Z,24.35
2024-01-30T22:50:01.195Z,24.32
2024-01-30T22:52:32.494Z,24.28
2024-01-30T22:55:04.214Z,24.30
2024-01-30T22:57:36.447Z,24.26
2024-01-30T23:00:36.319Z,24.22
2024-01-30T23:03:13.573Z,24.23
2024-01-30T23:05:45.836Z,24.18
2024-01-30T23:08:16.802Z,24.18
2024-01-30T23:10:47.325Z,24.13
2024-01-30T23:13:20.728Z,24.19
2024-01-30T23:15:55.492Z,24.18
2024-01-30T23:18:26.629Z,24.16
2024-01-30T23:20:57.390Z,24.08
2024-01-30T23:23:30.347Z,24.08
2024-01-30T23:26:02.979Z,24.16
2024-01-30T23:28:33.618Z,24.13
2024-01-30T23:31:04.582Z,24.12
2024-01-30T23:33:36.012Z,24.12
2024-01-30T23:36:06.827Z,24.12
2024-01-30T23:38:38.067Z,24.05
2024-01-30T23:41:11.664Z,24.08
2024-01-30T23:43:42.801Z,24.05
2024-01-30T23:46:13.670Z,24.05
2024-01-30T23:48:44.010Z,24.13
2024-01-30T23:51:15.791Z,24.10
2024-01-30T23:53:46.726Z,24.04
2024-01-30T23:56:18.152Z,24.09
2024-01-30T23:58:52.576Z,24.08
